Time,TemperatureF,DewpointF,PressureIn,WindDirection,WindDirectionDegrees,WindSpeedMPH,WindSpeedGustMPH,Humidity,HourlyPrecipIn,Conditions,Clouds,dailyrainin,SoftwareType,DateUTC
2013-01-11 00:00:00,36.9,35.1,30.05,ENE,68,3.0,-999.0,93,0.01,,,0.41,Wunderground v.1.15,2013-01-11 05:00:00,
2013-01-11 00:04:00,37.1,35.0,30.05,ENE,61,3.0,4.0,92,0.00,,,0.00,Wunderground v.1.15,2013-01-11 05:04:00,
2013-01-11 00:05:00,36.9,35.1,30.05,ENE,68,3.0,-999.0,93,0.01,,,0.41,Wunderground v.1.15,2013-01-11 05:05:00,
2013-01-11 00:06:00,37.0,35.2,30.05,ENE,75,3.0,4.0,93,0.00,,,0.00,Wunderground v.1.15,2013-01-11 05:06:00,
2013-01-11 00:08:00,36.9,35.1,30.05,ENE,64,3.0,4.0,93,0.00,,,0.00,Wunderground v.1.15,2013-01-11 05:08:00,
2013-01-11 00:10:00,36.9,35.1,30.05,ENE,69,3.0,3.0,93,0.00,,,0.00,Wunderground v.1.15,2013-01-11 05:10:00,
2013-01-11 00:15:00,36.9,35.3,30.04,ENE,68,3.0,-999.0,94,0.01,,,0.41,Wunderground v.1.15,2013-01-11 05:15:00,
2013-01-11 00:16:00,36.9,35.3,30.05,ENE,62,3.0,4.0,94,0.00,,,0.00,Wunderground v.1.15,2013-01-11 05:16:00,
2013-01-11 00:20:00,36.9,35.3,30.04,ENE,68,3.0,-999.0,94,0.01,,,0.41,Wunderground v.1.15,2013-01-11 05:20:00,
2013-01-11 00:22:00,36.9,35.3,30.04,ENE,60,3.0,4.0,94,0.00,,,0.00,Wunderground v.1.15,2013-01-11 05:22:00,
2013-01-11 00:25:00,37.1,35.5,30.03,ENE,68,3.0,-999.0,94,0.01,,,0.41,Wunderground v.1.15,2013-01-11 05:25:00,
2013-01-11 00:27:00,37.0,35.4,30.04,ENE,58,3.0,5.0,94,0.00,,,0.00,Wunderground v.1.15,2013-01-11 05:27:00,
2013-01-11 00:30:00,37.1,35.5,30.03,ENE,68,3.0,-999.0,94,0.01,,,0.41,Wunderground v.1.15,2013-01-11 05:30:00,
2013-01-11 00:34:00,37.3,35.7,30.03,ENE,61,4.0,5.0,94,0.00,,,0.00,Wunderground v.1.15,2013-01-11 05:34:00,
2013-01-11 00:35:00,37.7,35.9,30.03,ENE,68,4.0,-999.0,93,0.01,,,0.41,Wunderground v.1.15,2013-01-11 05:35:00,
2013-01-11 00:40:00,37.8,36.0,30.03,ENE,61,4.0,4.0,93,0.00,,,0.00,Wunderground v.1.15,2013-01-11 05:40:00,
2013-01-11 00:45:00,38.1,36.0,30.02,ENE,68,4.0,-999.0,92,0.01,,,0.41,Wunderground v.1.15,2013-01-11 05:45:00,
2013-01-11 00:46:00,38.1,36.0,30.02,ENE,68,3.0,4.0,92,0.00,,,0.00,Wunderground v.1.15,2013-01-11 05:46:00,
2013-01-11 00:50:00,38.1,36.0,30.02,ENE,68,4.0,-999.0,92,0.01,,,0.41,Wunderground v.1.15,2013-01-11 05:50:00,
2013-01-11 00:52:00,38.0,35.9,30.02,ENE,64,4.0,6.0,92,0.00,,,0.00,Wunderground v.1.15,2013-01-11 05:52:00,
2013-01-11 00:55:00,38.2,36.1,30.01,ENE,68,4.0,-999.0,92,0.00,,,0.41,Wunderground v.1.15,2013-01-11 05:55:00,
2013-01-11 00:58:00,38.2,36.4,30.01,ENE,64,4.0,6.0,93,0.00,,,0.00,Wunderground v.1.15,2013-01-11 05:58:00,
2013-01-11 01:00:00,38.2,36.1,30.01,ENE,68,4.0,-999.0,92,0.00,,,0.41,Wunderground v.1.15,2013-01-11 06:00:00,
2013-01-11 01:04:00,38.5,36.7,30.02,ENE,60,4.0,5.0,93,0.00,,,0.00,Wunderground v.1.15,2013-01-11 06:04:00,
2013-01-11 01:05:00,38.5,36.7,30.01,ENE,68,3.0,-999.0,93,0.00,,,0.41,Wunderground v.1.15,2013-01-11 06:05:00,
2013-01-11 01:10:00,38.5,36.7,30.01,East,79,3.0,5.0,93,0.00,,,0.00,Wunderground v.1.15,2013-01-11 06:10:00,
2013-01-11 01:15:00,39.1,37.5,30.00,ENE,68,2.0,-999.0,94,0.01,,,0.41,Wunderground v.1.15,2013-01-11 06:15:00,
2013-01-11 01:16:00,39.0,37.4,30.01,ENE,75,2.0,5.0,94,0.00,,,0.00,Wunderground v.1.15,2013-01-11 06:16:00,
2013-01-11 01:20:00,39.1,37.5,30.00,ENE,68,2.0,-999.0,94,0.01,,,0.41,Wunderground v.1.15,2013-01-11 06:20:00,
2013-01-11 01:22:00,39.1,37.5,30.00,ENE,71,2.0,5.0,94,0.00,,,0.01,Wunderground v.1.15,2013-01-11 06:22:00,
2013-01-11 01:25:00,39.4,38.1,30.00,East,90,1.0,-999.0,95,0.02,,,0.41,Wunderground v.1.15,2013-01-11 06:25:00,
2013-01-11 01:28:00,39.3,38.0,30.00,NNE,30,1.0,5.0,95,0.06,,,0.02,Wunderground v.1.15,2013-01-11 06:28:00,
2013-01-11 01:30:00,39.4,38.1,30.00,East,90,1.0,-999.0,95,0.02,,,0.41,Wunderground v.1.15,2013-01-11 06:30:00,
2013-01-11 01:34:00,39.6,38.3,30.00,ESE,106,1.0,1.0,95,0.06,,,0.02,Wunderground v.1.15,2013-01-11 06:34:00,
2013-01-11 01:35:00,39.7,38.4,30.00,East,90,1.0,-999.0,95,0.02,,,0.41,Wunderground v.1.15,2013-01-11 06:35:00,
2013-01-11 01:40:00,39.6,38.3,30.00,East,79,1.0,1.0,95,0.05,,,0.02,Wunderground v.1.15,2013-01-11 06:40:00,
2013-01-11 01:45:00,39.4,38.4,29.99,ENE,68,1.0,-999.0,96,0.02,,,0.41,Wunderground v.1.15,2013-01-11 06:45:00,
2013-01-11 01:46:00,39.3,38.0,29.99,East,79,1.0,1.0,95,0.00,,,0.02,Wunderground v.1.15,2013-01-11 06:46:00,
2013-01-11 01:50:00,39.4,38.4,29.99,ENE,68,1.0,-999.0,96,0.02,,,0.41,Wunderground v.1.15,2013-01-11 06:50:00,
2013-01-11 01:52:00,39.4,38.1,29.99,East,87,1.0,2.0,95,0.00,,,0.02,Wunderground v.1.15,2013-01-11 06:52:00,
2013-01-11 01:55:00,39.1,37.8,29.98,ENE,68,1.0,-999.0,95,0.02,,,0.41,Wunderground v.1.15,2013-01-11 06:55:00,
2013-01-11 01:58:00,39.1,37.8,29.98,ENE,68,1.0,2.0,95,0.00,,,0.02,Wunderground v.1.15,2013-01-11 06:58:00,
2013-01-11 02:00:00,39.1,37.8,29.98,ENE,68,1.0,-999.0,95,0.02,,,0.41,Wunderground v.1.15,2013-01-11 07:00:00,
2013-01-11 02:04:00,39.1,38.1,29.97,ENE,77,1.0,1.0,96,0.00,,,0.02,Wunderground v.1.15,2013-01-11 07:04:00,
2013-01-11 02:05:00,38.9,37.9,29.97,ENE,68,1.0,-999.0,96,0.02,,,0.41,Wunderground v.1.15,2013-01-11 07:05:00,
2013-01-11 02:10:00,38.8,37.5,29.97,ENE,63,1.0,1.0,95,0.00,,,0.02,Wunderground v.1.15,2013-01-11 07:10:00,
2013-01-11 02:15:00,39.2,38.4,29.96,East,90,1.0,-999.0,97,0.01,,,0.41,Wunderground v.1.15,2013-01-11 07:15:00,
2013-01-11 02:16:00,38.9,37.9,29.96,East,81,0.0,1.0,96,0.00,,,0.02,Wunderground v.1.15,2013-01-11 07:16:00,
2013-01-11 02:20:00,39.2,38.4,29.96,East,90,1.0,-999.0,97,0.01,,,0.41,Wunderground v.1.15,2013-01-11 07:20:00,
2013-01-11 02:21:00,39.5,38.7,29.96,ENE,66,1.0,1.0,97,0.00,,,0.02,Wunderground v.1.15,2013-01-11 07:21:00,
2013-01-11 02:25:00,39.8,39.0,29.96,ENE,68,1.0,-999.0,97,0.00,,,0.41,Wunderground v.1.15,2013-01-11 07:25:00,
2013-01-11 02:28:00,39.7,38.7,29.96,NE,56,1.0,2.0,96,0.00,,,0.02,Wunderground v.1.15,2013-01-11 07:28:00,
2013-01-11 02:30:00,39.8,39.0,29.96,ENE,68,1.0,-999.0,97,0.00,,,0.41,Wunderground v.1.15,2013-01-11 07:30:00,
2013-01-11 02:34:00,39.8,38.8,29.95,ESE,115,1.0,1.0,96,0.00,,,0.02,Wunderground v.1.15,2013-01-11 07:34:00,
2013-01-11 02:35:00,39.6,38.6,29.95,ENE,68,1.0,-999.0,96,0.00,,,0.41,Wunderground v.1.15,2013-01-11 07:35:00,
2013-01-11 02:40:00,39.5,38.5,29.95,ENE,71,1.0,2.0,96,0.00,,,0.02,Wunderground v.1.15,2013-01-11 07:40:00,
2013-01-11 02:45:00,39.8,39.0,29.95,ENE,68,1.0,-999.0,97,0.00,,,0.41,Wunderground v.1.15,2013-01-11 07:45:00,
2013-01-11 02:46:00,39.6,38.6,29.94,East,79,1.0,2.0,96,0.00,,,0.02,Wunderground v.1.15,2013-01-11 07:46:00,
2013-01-11 02:50:00,39.8,39.0,29.95,ENE,68,1.0,-999.0,97,0.00,,,0.41,Wunderground v.1.15,2013-01-11 07:50:00,
2013-01-11 02:52:00,39.9,39.1,29.94,East,91,1.0,1.0,97,0.00,,,0.02,Wunderground v.1.15,2013-01-11 07:52:00,
2013-01-11 02:55:00,39.5,38.5,29.94,East,90,0.0,-999.0,96,0.00,,,0.41,Wunderground v.1.15,2013-01-11 07:55:00,
2013-01-11 02:58:00,39.5,38.5,29.94,East,93,0.0,1.0,96,0.00,,,0.02,Wunderground v.1.15,2013-01-11 07:58:00,
2013-01-11 03:00:00,39.5,38.5,29.94,East,90,0.0,-999.0,96,0.00,,,0.41,Wunderground v.1.15,2013-01-11 08:00:00,
2013-01-11 03:04:00,39.5,38.5,29.94,East,86,0.0,1.0,96,0.00,,,0.02,Wunderground v.1.15,2013-01-11 08:04:00,
2013-01-11 03:05:00,39.6,38.8,29.94,ENE,68,1.0,-999.0,97,0.00,,,0.41,Wunderground v.1.15,2013-01-11 08:05:00,
2013-01-11 03:10:00,39.7,38.9,29.94,ENE,61,0.0,0.0,97,0.00,,,0.02,Wunderground v.1.15,2013-01-11 08:10:00,
2013-01-11 03:15:00,39.7,38.7,29.93,ENE,68,1.0,-999.0,96,0.00,,,0.41,Wunderground v.1.15,2013-01-11 08:15:00,
2013-01-11 03:16:00,39.7,38.7,29.93,East,79,1.0,1.0,96,0.00,,,0.02,Wunderground v.1.15,2013-01-11 08:16:00,
2013-01-11 03:20:00,39.7,38.7,29.93,ENE,68,1.0,-999.0,96,0.00,,,0.41,Wunderground v.1.15,2013-01-11 08:20:00,
2013-01-11 03:22:00,39.7,38.7,29.93,ENE,70,1.0,1.0,96,0.00,,,0.02,Wunderground v.1.15,2013-01-11 08:22:00,
2013-01-11 03:25:00,39.7,38.7,29.93,ENE,68,1.0,-999.0,96,0.00,,,0.41,Wunderground v.1.15,2013-01-11 08:25:00,
2013-01-11 03:28:00,39.7,38.9,29.93,ENE,76,1.0,2.0,97,0.00,,,0.02,Wunderground v.1.15,2013-01-11 08:28:00,
2013-01-11 03:30:00,39.7,38.7,29.93,ENE,68,1.0,-999.0,96,0.00,,,0.41,Wunderground v.1.15,2013-01-11 08:30:00,
2013-01-11 03:34:00,39.6,38.6,29.92,ENE,74,1.0,2.0,96,0.00,,,0.02,Wunderground v.1.15,2013-01-11 08:34:00,
2013-01-11 03:35:00,39.8,39.0,29.92,ENE,68,1.0,-999.0,97,0.00,,,0.41,Wunderground v.1.15,2013-01-11 08:35:00,
2013-01-11 03:40:00,39.7,38.9,29.92,ENE,76,1.0,1.0,97,0.00,,,0.02,Wunderground v.1.15,2013-01-11 08:40:00,
2013-01-11 03:45:00,39.5,38.5,29.92,ENE,62,1.0,1.0,96,0.00,,,0.02,Wunderground v.1.15,2013-01-11 08:45:00,
2013-01-11 03:50:00,39.4,38.4,29.91,ENE,68,1.0,-999.0,96,0.00,,,0.41,Wunderground v.1.15,2013-01-11 08:50:00,
2013-01-11 03:52:00,39.6,38.6,29.91,ENE,75,0.0,1.0,96,0.00,,,0.02,Wunderground v.1.15,2013-01-11 08:52:00,
2013-01-11 03:55:00,39.8,39.0,29.91,ENE,68,0.0,-999.0,97,0.00,,,0.41,Wunderground v.1.15,2013-01-11 08:55:00,
2013-01-11 03:58:00,39.9,39.1,29.91,ENE,63,0.0,1.0,97,0.00,,,0.02,Wunderground v.1.15,2013-01-11 08:58:00,
2013-01-11 04:00:00,39.8,39.0,29.91,ENE,68,0.0,-999.0,97,0.00,,,0.41,Wunderground v.1.15,2013-01-11 09:00:00,
2013-01-11 04:04:00,39.8,39.0,29.90,ENE,71,0.0,2.0,97,0.00,,,0.02,Wunderground v.1.15,2013-01-11 09:04:00,
2013-01-11 04:05:00,39.9,39.1,29.89,ENE,68,1.0,-999.0,97,0.00,,,0.41,Wunderground v.1.15,2013-01-11 09:05:00,
2013-01-11 04:10:00,39.8,39.0,29.89,ENE,76,1.0,2.0,97,0.00,,,0.02,Wunderground v.1.15,2013-01-11 09:10:00,
2013-01-11 04:15:00,39.9,39.1,29.89,ENE,68,1.0,-999.0,97,0.00,,,0.41,Wunderground v.1.15,2013-01-11 09:15:00,
2013-01-11 04:16:00,39.8,39.0,29.89,ENE,71,1.0,2.0,97,0.00,,,0.02,Wunderground v.1.15,2013-01-11 09:16:00,
2013-01-11 04:20:00,39.9,39.1,29.89,ENE,68,1.0,-999.0,97,0.00,,,0.41,Wunderground v.1.15,2013-01-11 09:20:00,
2013-01-11 04:22:00,39.9,39.1,29.89,East,81,1.0,1.0,97,0.00,,,0.02,Wunderground v.1.15,2013-01-11 09:22:00,
2013-01-11 04:25:00,39.7,38.9,29.89,East,90,0.0,-999.0,97,0.02,,,0.41,Wunderground v.1.15,2013-01-11 09:25:00,
2013-01-11 04:27:00,39.6,38.8,29.89,East,81,0.0,1.0,97,0.24,,,0.04,Wunderground v.1.15,2013-01-11 09:27:00,
2013-01-11 04:30:00,39.7,38.9,29.89,East,90,0.0,-999.0,97,0.02,,,0.41,Wunderground v.1.15,2013-01-11 09:30:00,
2013-01-11 04:34:00,40.1,39.3,29.89,East,81,0.0,1.0,97,0.16,,,0.06,Wunderground v.1.15,2013-01-11 09:34:00,
2013-01-11 04:35:00,40.9,40.4,29.89,East,90,0.0,-999.0,98,0.05,,,0.41,Wunderground v.1.15,2013-01-11 09:35:00,
2013-01-11 04:40:00,40.9,40.4,29.89,East,82,0.0,0.0,98,0.14,,,0.07,Wunderground v.1.15,2013-01-11 09:40:00,
2013-01-11 04:45:00,41.6,41.1,29.89,East,90,0.0,-999.0,98,0.10,,,0.41,Wunderground v.1.15,2013-01-11 09:45:00,
2013-01-11 04:46:00,41.3,40.8,29.89,East,81,0.0,0.0,98,0.32,,,0.10,Wunderground v.1.15,2013-01-11 09:46:00,
2013-01-11 04:50:00,41.6,41.1,29.89,East,90,0.0,-999.0,98,0.10,,,0.41,Wunderground v.1.15,2013-01-11 09:50:00,
2013-01-11 04:52:00,41.9,41.4,29.89,ENE,64,0.0,0.0,98,0.31,,,0.13,Wunderground v.1.15,2013-01-11 09:52:00,
2013-01-11 04:55:00,42.7,42.2,29.89,SE,135,0.0,-999.0,98,0.15,,,0.41,Wunderground v.1.15,2013-01-11 09:55:00,
2013-01-11 04:58:00,42.3,41.8,29.89,SE,142,0.0,2.0,98,0.37,,,0.17,Wunderground v.1.15,2013-01-11 09:58:00,
2013-01-11 05:00:00,42.7,42.2,29.89,SE,135,0.0,-999.0,98,0.15,,,0.41,Wunderground v.1.15,2013-01-11 10:00:00,
2013-01-11 05:03:00,43.3,42.8,29.88,SSW,204,0.0,1.0,98,0.26,,,0.19,Wunderground v.1.15,2013-01-11 10:03:00,
2013-01-11 05:05:00,43.9,43.4,29.89,East,90,1.0,-999.0,98,0.20,,,0.41,Wunderground v.1.15,2013-01-11 10:05:00,
2013-01-11 05:10:00,43.9,43.4,29.89,ESE,121,1.0,1.0,98,0.36,,,0.22,Wunderground v.1.15,2013-01-11 10:10:00,
2013-01-11 05:15:00,44.3,43.8,29.88,ESE,113,1.0,-999.0,98,0.25,,,0.41,Wunderground v.1.15,2013-01-11 10:15:00,
2013-01-11 05:16:00,44.2,43.7,29.88,East,83,0.0,1.0,98,0.24,,,0.26,Wunderground v.1.15,2013-01-11 10:16:00,
2013-01-11 05:20:00,44.3,43.8,29.88,ESE,113,1.0,-999.0,98,0.25,,,0.41,Wunderground v.1.15,2013-01-11 10:20:00,
2013-01-11 05:22:00,44.1,43.6,29.88,SSE,149,1.0,1.0,98,0.18,,,0.28,Wunderground v.1.15,2013-01-11 10:22:00,
2013-01-11 05:25:00,44.9,44.4,29.88,SSW,203,2.0,-999.0,98,0.26,,,0.41,Wunderground v.1.15,2013-01-11 10:25:00,
2013-01-11 05:28:00,44.8,44.3,29.88,SW,226,2.0,4.0,98,0.23,,,0.30,Wunderground v.1.15,2013-01-11 10:28:00,
2013-01-11 05:30:00,44.9,44.4,29.88,SSW,203,2.0,-999.0,98,0.26,,,0.41,Wunderground v.1.15,2013-01-11 10:30:00,
2013-01-11 05:34:00,45.4,45.1,29.88,ESE,122,2.0,2.0,99,0.17,,,0.32,Wunderground v.1.15,2013-01-11 10:34:00,
2013-01-11 05:35:00,45.9,45.6,29.88,SSW,203,1.0,-999.0,99,0.26,,,0.41,Wunderground v.1.15,2013-01-11 10:35:00,
2013-01-11 05:40:00,45.9,45.6,29.88,SSW,205,1.0,1.0,99,0.18,,,0.34,Wunderground v.1.15,2013-01-11 10:40:00,
2013-01-11 05:45:00,46.1,45.8,29.86,East,90,0.0,-999.0,99,0.23,,,0.41,Wunderground v.1.15,2013-01-11 10:45:00,
2013-01-11 05:46:00,46.3,46.0,29.86,East,80,1.0,1.0,99,0.14,,,0.35,Wunderground v.1.15,2013-01-11 10:46:00,
2013-01-11 05:50:00,46.1,45.8,29.86,East,90,0.0,-999.0,99,0.23,,,0.41,Wunderground v.1.15,2013-01-11 10:50:00,
2013-01-11 05:52:00,46.1,45.8,29.85,ESE,110,0.0,1.0,99,0.07,,,0.35,Wunderground v.1.15,2013-01-11 10:52:00,
2013-01-11 05:55:00,47.5,47.2,29.86,ESE,113,1.0,-999.0,99,0.19,,,0.41,Wunderground v.1.15,2013-01-11 10:55:00,
2013-01-11 05:58:00,47.2,46.9,29.86,WSW,242,1.0,4.0,99,0.07,,,0.36,Wunderground v.1.15,2013-01-11 10:58:00,
2013-01-11 06:00:00,47.5,47.2,29.86,ESE,113,1.0,-999.0,99,0.19,,,0.41,Wunderground v.1.15,2013-01-11 11:00:00,
2013-01-11 06:04:00,47.2,46.9,29.86,East,92,1.0,3.0,99,0.05,,,0.36,Wunderground v.1.15,2013-01-11 11:04:00,
2013-01-11 06:05:00,47.3,47.0,29.85,ENE,68,1.0,-999.0,99,0.14,,,0.41,Wunderground v.1.15,2013-01-11 11:05:00,
2013-01-11 06:10:00,47.2,46.9,29.85,ENE,74,1.0,1.0,99,0.00,,,0.36,Wunderground v.1.15,2013-01-11 11:10:00,
2013-01-11 06:15:00,47.4,47.1,29.84,ENE,68,1.0,-999.0,99,0.10,,,0.41,Wunderground v.1.15,2013-01-11 11:15:00,
2013-01-11 06:16:00,47.3,47.0,29.84,SE,124,1.0,1.0,99,0.00,,,0.36,Wunderground v.1.15,2013-01-11 11:16:00,
2013-01-11 06:20:00,47.4,47.1,29.84,ENE,68,1.0,-999.0,99,0.10,,,0.41,Wunderground v.1.15,2013-01-11 11:20:00,
2013-01-11 06:22:00,47.1,46.8,29.83,NE,37,1.0,3.0,99,0.00,,,0.37,Wunderground v.1.15,2013-01-11 11:22:00,
2013-01-11 06:25:00,47.0,46.7,29.82,ENE,68,2.0,-999.0,99,0.07,,,0.41,Wunderground v.1.15,2013-01-11 11:25:00,
2013-01-11 06:28:00,47.1,46.8,29.82,ENE,65,2.0,3.0,99,0.00,,,0.37,Wunderground v.1.15,2013-01-11 11:28:00,
2013-01-11 06:30:00,47.0,46.7,29.82,ENE,68,2.0,-999.0,99,0.07,,,0.41,Wunderground v.1.15,2013-01-11 11:30:00,
2013-01-11 06:34:00,46.2,45.7,29.82,ENE,60,1.0,2.0,98,0.00,,,0.37,Wunderground v.1.15,2013-01-11 11:34:00,
2013-01-11 06:35:00,46.3,45.8,29.81,ENE,68,1.0,-999.0,98,0.06,,,0.41,Wunderground v.1.15,2013-01-11 11:35:00,
2013-01-11 06:40:00,46.4,45.9,29.81,SSW,195,1.0,1.0,98,0.21,,,0.39,Wunderground v.1.15,2013-01-11 11:40:00,
2013-01-11 06:45:00,46.9,46.6,29.82,ENE,68,1.0,-999.0,99,0.04,,,0.41,Wunderground v.1.15,2013-01-11 11:45:00,
2013-01-11 06:46:00,46.5,46.0,29.80,WNW,298,1.0,1.0,98,0.08,,,0.39,Wunderground v.1.15,2013-01-11 11:46:00,
2013-01-11 06:50:00,46.9,46.6,29.82,ENE,68,1.0,-999.0,99,0.04,,,0.41,Wunderground v.1.15,2013-01-11 11:50:00,
2013-01-11 06:52:00,46.9,46.6,29.83,South,186,1.0,1.0,99,0.04,,,0.39,Wunderground v.1.15,2013-01-11 11:52:00,
2013-01-11 06:55:00,46.4,45.9,29.82,East,90,1.0,-999.0,98,0.04,,,0.41,Wunderground v.1.15,2013-01-11 11:55:00,
2013-01-11 06:58:00,46.5,46.0,29.83,NE,40,1.0,2.0,98,0.04,,,0.40,Wunderground v.1.15,2013-01-11 11:58:00,
2013-01-11 07:00:00,46.4,45.9,29.82,East,90,1.0,-999.0,98,0.04,,,0.41,Wunderground v.1.15,2013-01-11 12:00:00,
2013-01-11 07:04:00,47.0,46.7,29.81,NNW,347,1.0,4.0,99,0.04,,,0.40,Wunderground v.1.15,2013-01-11 12:04:00,
2013-01-11 07:05:00,47.7,47.4,29.79,NNE,23,2.0,-999.0,99,0.04,,,0.41,Wunderground v.1.15,2013-01-11 12:05:00,
2013-01-11 07:10:00,47.7,47.4,29.79,NNE,19,2.0,2.0,99,0.04,,,0.40,Wunderground v.1.15,2013-01-11 12:10:00,
2013-01-11 07:15:00,48.3,48.0,29.77,ENE,68,2.0,-999.0,99,0.03,,,0.41,Wunderground v.1.15,2013-01-11 12:15:00,
2013-01-11 07:16:00,47.8,47.5,29.78,North,350,2.0,4.0,99,0.00,,,0.40,Wunderground v.1.15,2013-01-11 12:16:00,
2013-01-11 07:20:00,48.3,48.0,29.77,ENE,68,2.0,-999.0,99,0.03,,,0.41,Wunderground v.1.15,2013-01-11 12:20:00,
2013-01-11 07:22:00,48.5,48.2,29.77,SE,136,2.0,2.0,99,0.00,,,0.40,Wunderground v.1.15,2013-01-11 12:22:00,
2013-01-11 07:25:00,48.7,48.4,29.77,East,90,2.0,-999.0,99,0.03,,,0.41,Wunderground v.1.15,2013-01-11 12:25:00,
2013-01-11 07:28:00,48.7,48.4,29.77,NW,316,3.0,3.0,99,0.00,,,0.40,Wunderground v.1.15,2013-01-11 12:28:00,
2013-01-11 07:30:00,48.7,48.4,29.77,East,90,2.0,-999.0,99,0.03,,,0.41,Wunderground v.1.15,2013-01-11 12:30:00,
2013-01-11 07:34:00,48.8,48.5,29.77,NE,50,2.0,3.0,99,0.00,,,0.40,Wunderground v.1.15,2013-01-11 12:34:00,
2013-01-11 07:35:00,48.7,48.4,29.76,East,90,1.0,-999.0,99,0.01,,,0.41,Wunderground v.1.15,2013-01-11 12:35:00,
2013-01-11 07:40:00,48.7,48.4,29.76,WNW,295,2.0,2.0,99,0.00,,,0.40,Wunderground v.1.15,2013-01-11 12:40:00,
2013-01-11 07:45:00,48.5,48.2,29.76,ENE,68,1.0,-999.0,99,0.01,,,0.41,Wunderground v.1.15,2013-01-11 12:45:00,
2013-01-11 07:46:00,48.6,48.3,29.76,WSW,245,1.0,2.0,99,0.00,,,0.40,Wunderground v.1.15,2013-01-11 12:46:00,
2013-01-11 07:50:00,48.5,48.2,29.76,ENE,68,1.0,-999.0,99,0.01,,,0.41,Wunderground v.1.15,2013-01-11 12:50:00,
2013-01-11 07:52:00,48.9,48.6,29.76,East,84,1.0,2.0,99,0.00,,,0.40,Wunderground v.1.15,2013-01-11 12:52:00,
2013-01-11 07:55:00,49.0,48.7,29.76,East,90,1.0,-999.0,99,0.00,,,0.41,Wunderground v.1.15,2013-01-11 12:55:00,
2013-01-11 07:58:00,48.9,48.6,29.76,SSE,160,1.0,4.0,99,0.00,,,0.40,Wunderground v.1.15,2013-01-11 12:58:00,
2013-01-11 08:00:00,49.0,48.7,29.76,East,90,1.0,-999.0,99,0.00,,,0.41,Wunderground v.1.15,2013-01-11 13:00:00,
2013-01-11 08:04:00,49.1,48.8,29.77,SW,214,2.0,5.0,99,0.00,,,0.40,Wunderground v.1.15,2013-01-11 13:04:00,
2013-01-11 08:05:00,49.4,49.1,29.78,SSW,203,2.0,-999.0,99,0.00,,,0.41,Wunderground v.1.15,2013-01-11 13:05:00,
2013-01-11 08:10:00,49.4,49.1,29.78,SW,214,2.0,4.0,99,0.00,,,0.40,Wunderground v.1.15,2013-01-11 13:10:00,
2013-01-11 08:15:00,50.2,49.9,29.79,SSW,203,9.0,-999.0,99,0.00,,,0.41,Wunderground v.1.15,2013-01-11 13:15:00,
2013-01-11 08:16:00,50.0,49.7,29.79,SW,222,6.0,8.0,99,0.00,,,0.40,Wunderground v.1.15,2013-01-11 13:16:00,
2013-01-11 08:20:00,50.2,49.9,29.79,SSW,203,9.0,-999.0,99,0.00,,,0.41,Wunderground v.1.15,2013-01-11 13:20:00,
2013-01-11 08:22:00,50.2,49.9,29.79,SSW,197,9.0,12.0,99,0.00,,,0.40,Wunderground v.1.15,2013-01-11 13:22:00,
2013-01-11 08:25:00,50.1,49.8,29.81,SSW,203,10.0,-999.0,99,0.00,,,0.41,Wunderground v.1.15,2013-01-11 13:25:00,
2013-01-11 08:28:00,50.1,49.8,29.81,SSW,205,10.0,12.0,99,0.00,,,0.40,Wunderground v.1.15,2013-01-11 13:28:00,
2013-01-11 08:30:00,50.1,49.8,29.81,SSW,203,10.0,-999.0,99,0.00,,,0.41,Wunderground v.1.15,2013-01-11 13:30:00,
2013-01-11 08:34:00,50.4,50.1,29.80,SSW,194,11.0,15.0,99,0.00,,,0.40,Wunderground v.1.15,2013-01-11 13:34:00,
2013-01-11 08:35:00,50.7,50.4,29.80,SSW,203,9.0,-999.0,99,0.00,,,0.41,Wunderground v.1.15,2013-01-11 13:35:00,
2013-01-11 08:40:00,50.7,50.4,29.80,SSW,210,9.0,10.0,99,0.00,,,0.40,Wunderground v.1.15,2013-01-11 13:40:00,
2013-01-11 08:45:00,50.7,50.4,29.80,SSW,203,7.0,-999.0,99,0.00,,,0.41,Wunderground v.1.15,2013-01-11 13:45:00,
2013-01-11 08:46:00,50.8,50.5,29.80,South,191,8.0,10.0,99,0.00,,,0.40,Wunderground v.1.15,2013-01-11 13:46:00,
2013-01-11 08:50:00,50.7,50.4,29.80,SSW,203,7.0,-999.0,99,0.00,,,0.41,Wunderground v.1.15,2013-01-11 13:50:00,
2013-01-11 08:52:00,50.8,50.5,29.81,SSW,203,6.0,14.0,99,0.00,,,0.40,Wunderground v.1.15,2013-01-11 13:52:00,
2013-01-11 08:55:00,51.0,50.7,29.81,SSW,203,8.0,-999.0,99,0.00,,,0.41,Wunderground v.1.15,2013-01-11 13:55:00,
2013-01-11 08:58:00,50.9,50.6,29.81,South,187,7.0,14.0,99,0.00,,,0.40,Wunderground v.1.15,2013-01-11 13:58:00,
2013-01-11 09:00:00,51.0,50.7,29.81,SSW,203,8.0,-999.0,99,0.00,,,0.41,Wunderground v.1.15,2013-01-11 14:00:00,
2013-01-11 09:04:00,51.2,50.9,29.81,SSE,161,8.0,11.0,99,0.00,,,0.40,Wunderground v.1.15,2013-01-11 14:04:00,
2013-01-11 09:05:00,51.1,50.8,29.81,SSW,203,9.0,-999.0,99,0.00,,,0.41,Wunderground v.1.15,2013-01-11 14:05:00,
2013-01-11 09:10:00,51.2,50.9,29.81,SSW,205,9.0,10.0,99,0.00,,,0.40,Wunderground v.1.15,2013-01-11 14:10:00,
2013-01-11 09:15:00,51.4,50.9,29.81,SSW,203,11.0,-999.0,98,0.00,,,0.41,Wunderground v.1.15,2013-01-11 14:15:00,
2013-01-11 09:16:00,51.2,50.9,29.81,SSW,205,10.0,13.0,99,0.00,,,0.40,Wunderground v.1.15,2013-01-11 14:16:00,
2013-01-11 09:20:00,51.4,50.9,29.81,SSW,203,11.0,-999.0,98,0.00,,,0.41,Wunderground v.1.15,2013-01-11 14:20:00,
2013-01-11 09:22:00,51.4,50.9,29.81,SSW,207,11.0,11.0,98,0.00,,,0.40,Wunderground v.1.15,2013-01-11 14:22:00,
2013-01-11 09:25:00,51.3,50.8,29.81,SSW,203,10.0,-999.0,98,0.00,,,0.41,Wunderground v.1.15,2013-01-11 14:25:00,
2013-01-11 09:28:00,51.3,50.8,29.82,SSW,201,11.0,11.0,98,0.00,,,0.40,Wunderground v.1.15,2013-01-11 14:28:00,
2013-01-11 09:30:00,51.3,50.8,29.81,SSW,203,10.0,-999.0,98,0.00,,,0.41,Wunderground v.1.15,2013-01-11 14:30:00,
2013-01-11 09:34:00,51.4,50.9,29.81,SSW,205,10.0,12.0,98,0.00,,,0.40,Wunderground v.1.15,2013-01-11 14:34:00,
2013-01-11 09:35:00,51.5,51.0,29.81,SSW,203,10.0,-999.0,98,0.00,,,0.41,Wunderground v.1.15,2013-01-11 14:35:00,
2013-01-11 09:40:00,51.6,51.1,29.81,SSW,205,10.0,12.0,98,0.00,,,0.40,Wunderground v.1.15,2013-01-11 14:40:00,
2013-01-11 09:45:00,51.8,51.3,29.82,SSW,203,11.0,-999.0,98,0.00,,,0.41,Wunderground v.1.15,2013-01-11 14:45:00,
2013-01-11 09:46:00,51.8,51.3,29.81,SW,217,11.0,12.0,98,0.00,,,0.40,Wunderground v.1.15,2013-01-11 14:46:00,
2013-01-11 09:50:00,51.8,51.3,29.82,SSW,203,11.0,-999.0,98,0.00,,,0.41,Wunderground v.1.15,2013-01-11 14:50:00,
2013-01-11 09:52:00,51.8,51.3,29.81,SSW,207,11.0,11.0,98,0.00,,,0.40,Wunderground v.1.15,2013-01-11 14:52:00,
2013-01-11 09:55:00,51.8,51.3,29.81,SSW,203,10.0,-999.0,98,0.00,,,0.41,Wunderground v.1.15,2013-01-11 14:55:00,
2013-01-11 09:58:00,51.8,51.3,29.81,SSW,208,10.0,11.0,98,0.00,,,0.40,Wunderground v.1.15,2013-01-11 14:58:00,
2013-01-11 10:00:00,51.8,51.3,29.81,SSW,203,10.0,-999.0,98,0.00,,,0.41,Wunderground v.1.15,2013-01-11 15:00:00,
2013-01-11 10:04:00,52.0,51.5,29.81,SSW,200,11.0,13.0,98,0.00,,,0.40,Wunderground v.1.15,2013-01-11 15:04:00,
2013-01-11 10:05:00,52.6,52.3,29.82,SSW,203,12.0,-999.0,99,0.00,,,0.41,Wunderground v.1.15,2013-01-11 15:05:00,
2013-01-11 10:10:00,52.6,52.3,29.82,SW,231,12.0,13.0,99,0.00,,,0.40,Wunderground v.1.15,2013-01-11 15:10:00,
2013-01-11 10:15:00,53.1,52.6,29.82,SW,225,12.0,-999.0,98,0.01,,,0.41,Wunderground v.1.15,2013-01-11 15:15:00,
2013-01-11 10:16:00,52.9,52.4,29.82,SW,236,12.0,15.0,98,0.00,,,0.41,Wunderground v.1.15,2013-01-11 15:16:00,
2013-01-11 10:20:00,53.1,52.6,29.82,SW,225,12.0,-999.0,98,0.01,,,0.41,Wunderground v.1.15,2013-01-11 15:20:00,
2013-01-11 10:22:00,53.2,52.7,29.82,SW,225,13.0,19.0,98,0.00,,,0.41,Wunderground v.1.15,2013-01-11 15:22:00,
2013-01-11 10:25:00,53.4,52.8,29.82,SW,225,14.0,-999.0,98,0.01,,,0.41,Wunderground v.1.15,2013-01-11 15:25:00,
2013-01-11 10:28:00,53.4,52.8,29.82,SW,221,13.0,19.0,98,0.00,,,0.41,Wunderground v.1.15,2013-01-11 15:28:00,
2013-01-11 10:30:00,53.4,52.8,29.82,SW,225,14.0,-999.0,98,0.01,,,0.41,Wunderground v.1.15,2013-01-11 15:30:00,
2013-01-11 10:34:00,53.5,52.9,29.82,SSW,210,12.0,14.0,98,0.00,,,0.41,Wunderground v.1.15,2013-01-11 15:34:00,
2013-01-11 10:35:00,53.6,52.8,29.82,SW,225,11.0,-999.0,97,0.01,,,0.41,Wunderground v.1.15,2013-01-11 15:35:00,
2013-01-11 10:40:00,53.6,52.8,29.83,SW,218,11.0,14.0,97,0.00,,,0.41,Wunderground v.1.15,2013-01-11 15:40:00,
2013-01-11 10:45:00,54.0,53.2,29.83,SW,225,14.0,-999.0,97,0.01,,,0.41,Wunderground v.1.15,2013-01-11 15:45:00,
2013-01-11 10:46:00,53.8,53.0,29.83,SW,221,13.0,15.0,97,0.00,,,0.41,Wunderground v.1.15,2013-01-11 15:46:00,
2013-01-11 10:50:00,54.0,53.2,29.83,SW,225,14.0,-999.0,97,0.01,,,0.41,Wunderground v.1.15,2013-01-11 15:50:00,
2013-01-11 10:52:00,54.2,53.4,29.83,SW,225,14.0,14.0,97,0.00,,,0.41,Wunderground v.1.15,2013-01-11 15:52:00,
2013-01-11 10:55:00,54.6,53.8,29.83,SW,225,14.0,-999.0,97,0.01,,,0.41,Wunderground v.1.15,2013-01-11 15:55:00,
2013-01-11 10:58:00,54.5,53.7,29.83,SW,224,14.0,18.0,97,0.00,,,0.41,Wunderground v.1.15,2013-01-11 15:58:00,
2013-01-11 11:00:00,54.6,53.8,29.83,SW,225,14.0,-999.0,97,0.01,,,0.41,Wunderground v.1.15,2013-01-11 16:00:00,
2013-01-11 11:04:00,54.7,53.9,29.83,SW,231,14.0,15.0,97,0.00,,,0.41,Wunderground v.1.15,2013-01-11 16:04:00,
2013-01-11 11:05:00,54.8,53.7,29.83,SW,225,13.0,-999.0,96,0.01,,,0.41,Wunderground v.1.15,2013-01-11 16:05:00,
2013-01-11 11:10:00,54.8,53.7,29.83,SW,217,13.0,13.0,96,0.00,,,0.41,Wunderground v.1.15,2013-01-11 16:10:00,
2013-01-11 11:15:00,54.9,53.8,29.83,SW,225,13.0,-999.0,96,0.00,,,0.41,Wunderground v.1.15,2013-01-11 16:15:00,
2013-01-11 11:16:00,54.9,53.8,29.83,SW,233,13.0,16.0,96,0.00,,,0.41,Wunderground v.1.15,2013-01-11 16:16:00,
2013-01-11 11:20:00,54.9,53.8,29.83,SW,225,13.0,-999.0,96,0.00,,,0.41,Wunderground v.1.15,2013-01-11 16:20:00,
2013-01-11 11:22:00,54.9,53.8,29.83,SSW,212,13.0,16.0,96,0.00,,,0.41,Wunderground v.1.15,2013-01-11 16:22:00,
2013-01-11 11:25:00,54.7,53.3,29.82,SW,225,13.0,-999.0,95,0.00,,,0.41,Wunderground v.1.15,2013-01-11 16:25:00,
2013-01-11 11:28:00,54.8,53.7,29.82,SW,221,13.0,16.0,96,0.00,,,0.41,Wunderground v.1.15,2013-01-11 16:28:00,
2013-01-11 11:30:00,54.7,53.3,29.82,SW,225,13.0,-999.0,95,0.00,,,0.41,Wunderground v.1.15,2013-01-11 16:30:00,
2013-01-11 11:34:00,54.6,53.5,29.82,SW,221,12.0,13.0,96,0.00,,,0.41,Wunderground v.1.15,2013-01-11 16:34:00,
2013-01-11 11:35:00,54.7,53.6,29.82,SW,225,11.0,-999.0,96,0.00,,,0.41,Wunderground v.1.15,2013-01-11 16:35:00,
2013-01-11 11:40:00,54.7,53.6,29.82,SW,233,11.0,11.0,96,0.00,,,0.41,Wunderground v.1.15,2013-01-11 16:40:00,
2013-01-11 11:45:00,54.9,53.8,29.83,SW,225,12.0,-999.0,96,0.00,,,0.41,Wunderground v.1.15,2013-01-11 16:45:00,
2013-01-11 11:46:00,54.8,53.7,29.83,SW,225,11.0,17.0,96,0.00,,,0.41,Wunderground v.1.15,2013-01-11 16:46:00,
2013-01-11 11:50:00,54.9,53.8,29.83,SW,225,12.0,-999.0,96,0.00,,,0.41,Wunderground v.1.15,2013-01-11 16:50:00,
2013-01-11 11:52:00,55.0,53.6,29.83,SW,236,12.0,14.0,95,0.00,,,0.41,Wunderground v.1.15,2013-01-11 16:52:00,
2013-01-11 11:55:00,55.2,53.5,29.82,SW,225,13.0,-999.0,94,0.00,,,0.41,Wunderground v.1.15,2013-01-11 16:55:00,
2013-01-11 11:58:00,55.2,53.5,29.82,SW,231,13.0,16.0,94,0.00,,,0.41,Wunderground v.1.15,2013-01-11 16:58:00,
2013-01-11 12:00:00,55.2,53.5,29.82,SW,225,13.0,-999.0,94,0.00,,,0.41,Wunderground v.1.15,2013-01-11 17:00:00,
2013-01-11 12:04:00,55.3,53.3,29.82,SW,214,13.0,17.0,93,0.00,,,0.41,Wunderground v.1.15,2013-01-11 17:04:00,
2013-01-11 12:05:00,55.3,53.3,29.82,SW,225,13.0,-999.0,93,0.00,,,0.41,Wunderground v.1.15,2013-01-11 17:05:00,
2013-01-11 12:10:00,55.4,53.1,29.82,WSW,243,13.0,13.0,92,0.00,,,0.41,Wunderground v.1.15,2013-01-11 17:10:00,
2013-01-11 12:15:00,55.7,53.1,29.82,WSW,248,12.0,-999.0,91,0.00,,,0.41,Wunderground v.1.15,2013-01-11 17:15:00,
2013-01-11 12:16:00,55.6,53.0,29.82,WSW,253,13.0,13.0,91,0.00,,,0.41,Wunderground v.1.15,2013-01-11 17:16:00,
2013-01-11 12:20:00,55.7,53.1,29.82,WSW,248,12.0,-999.0,91,0.00,,,0.41,Wunderground v.1.15,2013-01-11 17:20:00,
2013-01-11 12:22:00,55.6,53.0,29.82,WSW,242,12.0,13.0,91,0.00,,,0.41,Wunderground v.1.15,2013-01-11 17:22:00,
2013-01-11 12:25:00,55.7,53.4,29.82,WSW,248,10.0,-999.0,92,0.00,,,0.41,Wunderground v.1.15,2013-01-11 17:25:00,
2013-01-11 12:28:00,55.6,53.0,29.82,WSW,238,11.0,14.0,91,0.00,,,0.41,Wunderground v.1.15,2013-01-11 17:28:00,
2013-01-11 12:30:00,55.7,53.4,29.82,WSW,248,10.0,-999.0,92,0.00,,,0.41,Wunderground v.1.15,2013-01-11 17:30:00,
2013-01-11 12:34:00,56.1,53.8,29.81,WSW,246,10.0,15.0,92,0.00,,,0.41,Wunderground v.1.15,2013-01-11 17:34:00,
2013-01-11 12:35:00,56.4,54.1,29.81,WSW,248,11.0,-999.0,92,0.00,,,0.41,Wunderground v.1.15,2013-01-11 17:35:00,
2013-01-11 12:40:00,56.4,54.1,29.81,WSW,241,11.0,11.0,92,0.00,,,0.41,Wunderground v.1.15,2013-01-11 17:40:00,
2013-01-11 12:45:00,57.0,54.4,29.81,WSW,248,11.0,-999.0,91,0.00,,,0.41,Wunderground v.1.15,2013-01-11 17:45:00,
2013-01-11 12:46:00,56.9,54.3,29.81,SW,232,11.0,13.0,91,0.00,,,0.41,Wunderground v.1.15,2013-01-11 17:46:00,
2013-01-11 12:50:00,57.0,54.4,29.81,WSW,248,11.0,-999.0,91,0.00,,,0.41,Wunderground v.1.15,2013-01-11 17:50:00,
2013-01-11 12:52:00,56.9,53.7,29.81,SW,226,11.0,11.0,89,0.00,,,0.41,Wunderground v.1.15,2013-01-11 17:52:00,
2013-01-11 12:55:00,56.7,53.2,29.81,WSW,248,11.0,-999.0,88,0.00,,,0.41,Wunderground v.1.15,2013-01-11 17:55:00,
2013-01-11 12:58:00,56.8,53.9,29.81,WSW,250,11.0,11.0,90,0.00,,,0.41,Wunderground v.1.15,2013-01-11 17:58:00,
2013-01-11 13:00:00,56.7,53.2,29.81,WSW,248,11.0,-999.0,88,0.00,,,0.41,Wunderground v.1.15,2013-01-11 18:00:00,
2013-01-11 13:04:00,56.5,52.4,29.81,WSW,240,12.0,14.0,86,0.00,,,0.41,Wunderground v.1.15,2013-01-11 18:04:00,
2013-01-11 13:05:00,56.7,53.2,29.81,WSW,248,13.0,-999.0,88,0.00,,,0.41,Wunderground v.1.15,2013-01-11 18:05:00,
2013-01-11 13:10:00,56.7,52.9,29.81,SW,226,13.0,13.0,87,0.00,,,0.41,Wunderground v.1.15,2013-01-11 18:10:00,
2013-01-11 13:15:00,57.1,53.0,29.80,WSW,248,13.0,-999.0,86,0.00,,,0.41,Wunderground v.1.15,2013-01-11 18:15:00,
2013-01-11 13:16:00,57.1,53.0,29.81,SW,233,13.0,14.0,86,0.00,,,0.41,Wunderground v.1.15,2013-01-11 18:16:00,
2013-01-11 13:20:00,57.1,53.0,29.80,WSW,248,13.0,-999.0,86,0.00,,,0.41,Wunderground v.1.15,2013-01-11 18:20:00,
2013-01-11 13:22:00,57.1,52.6,29.80,WSW,252,14.0,15.0,85,0.00,,,0.41,Wunderground v.1.15,2013-01-11 18:22:00,
2013-01-11 13:25:00,57.5,53.0,29.80,SW,225,16.0,-999.0,85,0.00,,,0.41,Wunderground v.1.15,2013-01-11 18:25:00,
2013-01-11 13:28:00,57.4,52.6,29.80,SW,226,16.0,18.0,84,0.00,,,0.41,Wunderground v.1.15,2013-01-11 18:28:00,
2013-01-11 13:30:00,57.5,53.0,29.80,SW,225,16.0,-999.0,85,0.00,,,0.41,Wunderground v.1.15,2013-01-11 18:30:00,
2013-01-11 13:34:00,58.0,52.9,29.80,SW,236,16.0,18.0,83,0.00,,,0.41,Wunderground v.1.15,2013-01-11 18:34:00,
2013-01-11 13:35:00,58.1,52.0,29.80,SW,225,17.0,-999.0,80,0.00,,,0.41,Wunderground v.1.15,2013-01-11 18:35:00,
2013-01-11 13:40:00,58.1,52.3,29.81,WSW,255,17.0,18.0,81,0.00,,,0.41,Wunderground v.1.15,2013-01-11 18:40:00,
2013-01-11 13:45:00,57.3,52.5,29.81,WSW,248,13.0,-999.0,84,0.00,,,0.41,Wunderground v.1.15,2013-01-11 18:45:00,
2013-01-11 13:46:00,57.6,52.5,29.81,WSW,245,17.0,19.0,83,0.00,,,0.41,Wunderground v.1.15,2013-01-11 18:46:00,
2013-01-11 13:50:00,57.3,52.5,29.81,WSW,248,13.0,-999.0,84,0.00,,,0.41,Wunderground v.1.15,2013-01-11 18:50:00,
2013-01-11 13:52:00,57.3,53.1,29.81,WSW,249,12.0,13.0,86,0.00,,,0.41,Wunderground v.1.15,2013-01-11 18:52:00,
2013-01-11 13:55:00,57.1,52.6,29.81,WSW,248,9.0,-999.0,85,0.00,,,0.41,Wunderground v.1.15,2013-01-11 18:55:00,
2013-01-11 13:58:00,57.1,52.3,29.81,WSW,256,10.0,13.0,84,0.00,,,0.41,Wunderground v.1.15,2013-01-11 18:58:00,
2013-01-11 14:00:00,57.1,52.6,29.81,WSW,248,9.0,-999.0,85,0.00,,,0.41,Wunderground v.1.15,2013-01-11 19:00:00,
2013-01-11 14:04:00,56.8,51.4,29.80,WSW,248,11.0,14.0,82,0.00,,,0.41,Wunderground v.1.15,2013-01-11 19:04:00,
2013-01-11 14:05:00,56.5,51.7,29.81,WSW,248,13.0,-999.0,84,0.00,,,0.41,Wunderground v.1.15,2013-01-11 19:05:00,
2013-01-11 14:10:00,56.4,51.3,29.81,SW,236,13.0,15.0,83,0.00,,,0.41,Wunderground v.1.15,2013-01-11 19:10:00,
2013-01-11 14:15:00,55.9,51.5,29.81,SW,225,12.0,-999.0,85,0.00,,,0.41,Wunderground v.1.15,2013-01-11 19:15:00,
2013-01-11 14:16:00,56.1,51.7,29.81,SW,225,12.0,15.0,85,0.00,,,0.41,Wunderground v.1.15,2013-01-11 19:16:00,
2013-01-11 14:20:00,55.9,51.5,29.81,SW,225,12.0,-999.0,85,0.00,,,0.41,Wunderground v.1.15,2013-01-11 19:20:00,
2013-01-11 14:22:00,55.8,51.4,29.81,SW,229,12.0,14.0,85,0.00,,,0.41,Wunderground v.1.15,2013-01-11 19:22:00,
2013-01-11 14:25:00,55.8,51.7,29.82,WSW,248,10.0,-999.0,86,0.00,,,0.41,Wunderground v.1.15,2013-01-11 19:25:00,
2013-01-11 14:28:00,55.7,51.6,29.82,WSW,241,11.0,14.0,86,0.00,,,0.41,Wunderground v.1.15,2013-01-11 19:28:00,
2013-01-11 14:30:00,55.8,51.7,29.82,WSW,248,10.0,-999.0,86,0.00,,,0.41,Wunderground v.1.15,2013-01-11 19:30:00,
2013-01-11 14:34:00,56.0,52.2,29.82,WSW,239,10.0,13.0,87,0.00,,,0.41,Wunderground v.1.15,2013-01-11 19:34:00,
2013-01-11 14:35:00,56.4,52.3,29.82,SW,225,11.0,-999.0,86,0.00,,,0.41,Wunderground v.1.15,2013-01-11 19:35:00,
2013-01-11 14:40:00,56.3,51.5,29.82,SW,222,11.0,12.0,84,0.00,,,0.41,Wunderground v.1.15,2013-01-11 19:40:00,
2013-01-11 14:45:00,56.0,51.9,29.83,SW,225,12.0,-999.0,86,0.00,,,0.41,Wunderground v.1.15,2013-01-11 19:45:00,
2013-01-11 14:46:00,56.1,51.7,29.83,WSW,242,12.0,13.0,85,0.00,,,0.41,Wunderground v.1.15,2013-01-11 19:46:00,
2013-01-11 14:50:00,56.0,51.9,29.83,SW,225,12.0,-999.0,86,0.00,,,0.41,Wunderground v.1.15,2013-01-11 19:50:00,
2013-01-11 14:52:00,55.9,51.8,29.83,SW,217,11.0,12.0,86,0.00,,,0.41,Wunderground v.1.15,2013-01-11 19:52:00,
2013-01-11 14:55:00,56.1,52.0,29.83,SW,225,11.0,-999.0,86,0.00,,,0.41,Wunderground v.1.15,2013-01-11 19:55:00,
2013-01-11 14:58:00,56.1,52.3,29.83,WSW,242,11.0,13.0,87,0.00,,,0.41,Wunderground v.1.15,2013-01-11 19:58:00,
2013-01-11 15:00:00,56.1,52.0,29.83,SW,225,11.0,-999.0,86,0.00,,,0.41,Wunderground v.1.15,2013-01-11 20:00:00,
2013-01-11 15:04:00,56.2,51.7,29.84,SW,226,12.0,12.0,85,0.00,,,0.41,Wunderground v.1.15,2013-01-11 20:04:00,
2013-01-11 15:05:00,55.7,50.9,29.84,SW,225,12.0,-999.0,84,0.00,,,0.41,Wunderground v.1.15,2013-01-11 20:05:00,
2013-01-11 15:10:00,55.7,50.6,29.84,SW,233,12.0,12.0,83,0.00,,,0.41,Wunderground v.1.15,2013-01-11 20:10:00,
2013-01-11 15:15:00,55.3,50.5,29.84,SW,225,12.0,-999.0,84,0.00,,,0.41,Wunderground v.1.15,2013-01-11 20:15:00,
2013-01-11 15:16:00,55.4,50.6,29.84,WSW,240,12.0,15.0,84,0.00,,,0.41,Wunderground v.1.15,2013-01-11 20:16:00,
2013-01-11 15:20:00,55.3,50.5,29.84,SW,225,12.0,-999.0,84,0.00,,,0.41,Wunderground v.1.15,2013-01-11 20:20:00,
2013-01-11 15:22:00,55.1,50.7,29.84,SW,231,12.0,12.0,85,0.00,,,0.41,Wunderground v.1.15,2013-01-11 20:22:00,
2013-01-11 15:25:00,55.1,50.7,29.84,WSW,248,10.0,-999.0,85,0.00,,,0.41,Wunderground v.1.15,2013-01-11 20:25:00,
2013-01-11 15:28:00,55.1,50.4,29.84,SW,225,11.0,13.0,84,0.00,,,0.41,Wunderground v.1.15,2013-01-11 20:28:00,
2013-01-11 15:30:00,55.1,50.7,29.84,WSW,248,10.0,-999.0,85,0.00,,,0.41,Wunderground v.1.15,2013-01-11 20:30:00,
2013-01-11 15:34:00,55.3,50.9,29.83,WSW,238,10.0,10.0,85,0.00,,,0.41,Wunderground v.1.15,2013-01-11 20:34:00,
2013-01-11 15:35:00,55.6,50.8,29.83,SW,225,10.0,-999.0,84,0.00,,,0.41,Wunderground v.1.15,2013-01-11 20:35:00,
2013-01-11 15:40:00,55.7,50.9,29.83,SW,236,10.0,10.0,84,0.00,,,0.41,Wunderground v.1.15,2013-01-11 20:40:00,
2013-01-11 15:45:00,56.0,50.6,29.84,SW,225,11.0,-999.0,82,0.00,,,0.41,Wunderground v.1.15,2013-01-11 20:45:00,
2013-01-11 15:46:00,56.0,51.2,29.84,SW,227,10.0,11.0,84,0.00,,,0.41,Wunderground v.1.15,2013-01-11 20:46:00,
2013-01-11 15:50:00,56.0,50.6,29.84,SW,225,11.0,-999.0,82,0.00,,,0.41,Wunderground v.1.15,2013-01-11 20:50:00,
2013-01-11 15:52:00,56.0,50.6,29.83,SW,224,11.0,14.0,82,0.00,,,0.41,Wunderground v.1.15,2013-01-11 20:52:00,
2013-01-11 15:55:00,56.0,50.9,29.83,SW,225,11.0,-999.0,83,0.00,,,0.41,Wunderground v.1.15,2013-01-11 20:55:00,
2013-01-11 15:58:00,56.0,50.6,29.83,SW,226,12.0,14.0,82,0.00,,,0.41,Wunderground v.1.15,2013-01-11 20:58:00,
2013-01-11 16:00:00,56.0,50.9,29.83,SW,225,11.0,-999.0,83,0.00,,,0.41,Wunderground v.1.15,2013-01-11 21:00:00,
2013-01-11 16:04:00,55.9,50.5,29.84,SW,214,11.0,12.0,82,0.00,,,0.41,Wunderground v.1.15,2013-01-11 21:04:00,
2013-01-11 16:05:00,55.8,50.4,29.83,SW,225,11.0,-999.0,82,0.00,,,0.41,Wunderground v.1.15,2013-01-11 21:05:00,
2013-01-11 16:10:00,55.8,50.4,29.83,SW,217,11.0,12.0,82,0.00,,,0.41,Wunderground v.1.15,2013-01-11 21:10:00,
2013-01-11 16:15:00,55.1,50.4,29.84,SW,225,9.0,-999.0,84,0.00,,,0.41,Wunderground v.1.15,2013-01-11 21:15:00,
2013-01-11 16:16:00,55.5,50.4,29.83,SW,219,10.0,12.0,83,0.00,,,0.41,Wunderground v.1.15,2013-01-11 21:16:00,
2013-01-11 16:20:00,55.1,50.4,29.84,SW,225,9.0,-999.0,84,0.00,,,0.41,Wunderground v.1.15,2013-01-11 21:20:00,
2013-01-11 16:22:00,54.8,50.1,29.84,WSW,246,8.0,9.0,84,0.00,,,0.41,Wunderground v.1.15,2013-01-11 21:22:00,
2013-01-11 16:25:00,54.5,49.8,29.84,SW,225,9.0,-999.0,84,0.00,,,0.41,Wunderground v.1.15,2013-01-11 21:25:00,
2013-01-11 16:28:00,54.5,49.8,29.85,SW,235,8.0,12.0,84,0.00,,,0.41,Wunderground v.1.15,2013-01-11 21:28:00,
2013-01-11 16:30:00,54.5,49.8,29.84,SW,225,9.0,-999.0,84,0.00,,,0.41,Wunderground v.1.15,2013-01-11 21:30:00,
2013-01-11 16:34:00,54.2,49.8,29.85,SSW,210,8.0,9.0,85,0.00,,,0.41,Wunderground v.1.15,2013-01-11 21:34:00,
2013-01-11 16:35:00,54.1,49.7,29.84,SW,225,8.0,-999.0,85,0.00,,,0.41,Wunderground v.1.15,2013-01-11 21:35:00,
2013-01-11 16:40:00,54.1,49.7,29.84,SSW,212,8.0,8.0,85,0.00,,,0.41,Wunderground v.1.15,2013-01-11 21:40:00,
2013-01-11 16:45:00,53.7,49.6,29.84,SW,225,6.0,-999.0,86,0.00,,,0.41,Wunderground v.1.15,2013-01-11 21:45:00,
2013-01-11 16:46:00,53.8,49.7,29.84,SW,226,7.0,8.0,86,0.00,,,0.41,Wunderground v.1.15,2013-01-11 21:46:00,
2013-01-11 16:50:00,53.7,49.6,29.84,SW,225,6.0,-999.0,86,0.00,,,0.41,Wunderground v.1.15,2013-01-11 21:50:00,
2013-01-11 16:52:00,53.7,49.6,29.83,SSW,207,6.0,6.0,86,0.00,,,0.41,Wunderground v.1.15,2013-01-11 21:52:00,
2013-01-11 16:55:00,53.6,49.8,29.84,SSW,203,4.0,-999.0,87,0.00,,,0.41,Wunderground v.1.15,2013-01-11 21:55:00,
2013-01-11 16:58:00,53.6,49.8,29.83,SW,215,5.0,6.0,87,0.00,,,0.41,Wunderground v.1.15,2013-01-11 21:58:00,
2013-01-11 17:00:00,53.6,49.8,29.84,SSW,203,4.0,-999.0,87,0.00,,,0.41,Wunderground v.1.15,2013-01-11 22:00:00,
2013-01-11 17:04:00,53.4,49.6,29.83,SSW,201,4.0,5.0,87,0.00,,,0.41,Wunderground v.1.15,2013-01-11 22:04:00,
2013-01-11 17:05:00,53.1,49.6,29.84,SSW,203,4.0,-999.0,88,0.00,,,0.41,Wunderground v.1.15,2013-01-11 22:05:00,
2013-01-11 17:10:00,53.1,49.6,29.84,SSW,210,4.0,4.0,88,0.00,,,0.41,Wunderground v.1.15,2013-01-11 22:10:00,
2013-01-11 17:15:00,52.7,49.2,29.84,SW,225,3.0,-999.0,88,0.00,,,0.41,Wunderground v.1.15,2013-01-11 22:15:00,
2013-01-11 17:16:00,52.8,49.3,29.85,SW,218,3.0,4.0,88,0.00,,,0.41,Wunderground v.1.15,2013-01-11 22:16:00,
2013-01-11 17:20:00,52.7,49.2,29.84,SW,225,3.0,-999.0,88,0.00,,,0.41,Wunderground v.1.15,2013-01-11 22:20:00,
2013-01-11 17:22:00,52.6,49.1,29.84,SW,215,3.0,3.0,88,0.00,,,0.41,Wunderground v.1.15,2013-01-11 22:22:00,
2013-01-11 17:25:00,52.3,48.9,29.84,SSW,203,2.0,-999.0,88,0.00,,,0.41,Wunderground v.1.15,2013-01-11 22:25:00,
2013-01-11 17:28:00,52.4,49.3,29.84,SSW,193,3.0,3.0,89,0.00,,,0.41,Wunderground v.1.15,2013-01-11 22:28:00,
2013-01-11 17:30:00,52.3,48.9,29.84,SSW,203,2.0,-999.0,88,0.00,,,0.41,Wunderground v.1.15,2013-01-11 22:30:00,
2013-01-11 17:34:00,52.0,48.6,29.84,SSW,204,2.0,2.0,88,0.00,,,0.41,Wunderground v.1.15,2013-01-11 22:34:00,
2013-01-11 17:35:00,51.6,48.2,29.84,SSW,203,0.0,-999.0,88,0.00,,,0.41,Wunderground v.1.15,2013-01-11 22:35:00,
2013-01-11 17:40:00,51.5,48.1,29.83,SSW,194,0.0,0.0,88,0.00,,,0.41,Wunderground v.1.15,2013-01-11 22:40:00,
2013-01-11 17:45:00,50.6,47.8,29.83,N/A,-737280,0.0,-999.0,90,0.00,,,0.41,Wunderground v.1.15,2013-01-11 22:45:00,
2013-01-11 17:46:00,50.9,47.8,29.83,SE,146,0.0,0.0,89,0.00,,,0.41,Wunderground v.1.15,2013-01-11 22:46:00,
2013-01-11 17:50:00,50.6,47.8,29.83,N/A,-737280,0.0,-999.0,90,0.00,,,0.41,Wunderground v.1.15,2013-01-11 22:50:00,
2013-01-11 17:52:00,50.4,47.6,29.83,SSE,147,0.0,0.0,90,0.00,,,0.41,Wunderground v.1.15,2013-01-11 22:52:00,
2013-01-11 17:55:00,49.8,47.3,29.85,SSW,203,0.0,-999.0,91,0.00,,,0.41,Wunderground v.1.15,2013-01-11 22:55:00,
2013-01-11 17:58:00,49.9,47.4,29.85,SSE,148,0.0,0.0,91,0.00,,,0.41,Wunderground v.1.15,2013-01-11 22:58:00,
2013-01-11 18:00:00,49.8,47.3,29.85,SSW,203,0.0,-999.0,91,0.00,,,0.41,Wunderground v.1.15,2013-01-11 23:00:00,
2013-01-11 18:04:00,49.6,47.4,29.85,SSW,201,0.0,3.0,92,0.00,,,0.41,Wunderground v.1.15,2013-01-11 23:04:00,
2013-01-11 18:05:00,49.6,47.4,29.85,SW,225,0.0,-999.0,92,0.00,,,0.41,Wunderground v.1.15,2013-01-11 23:05:00,
2013-01-11 18:10:00,49.5,47.3,29.85,SSW,193,0.0,0.0,92,0.00,,,0.41,Wunderground v.1.15,2013-01-11 23:10:00,
2013-01-11 18:15:00,48.5,46.3,29.84,SE,135,0.0,-999.0,92,0.00,,,0.41,Wunderground v.1.15,2013-01-11 23:15:00,
2013-01-11 18:16:00,48.8,46.6,29.84,SE,144,0.0,0.0,92,0.00,,,0.41,Wunderground v.1.15,2013-01-11 23:16:00,
2013-01-11 18:20:00,48.5,46.3,29.84,SE,135,0.0,-999.0,92,0.00,,,0.41,Wunderground v.1.15,2013-01-11 23:20:00,
2013-01-11 18:22:00,48.4,46.5,29.84,East,92,0.0,1.0,93,0.00,,,0.41,Wunderground v.1.15,2013-01-11 23:22:00,
2013-01-11 18:25:00,48.0,46.1,29.84,East,90,0.0,-999.0,93,0.00,,,0.41,Wunderground v.1.15,2013-01-11 23:25:00,
2013-01-11 18:28:00,48.1,46.2,29.84,East,92,0.0,1.0,93,0.00,,,0.41,Wunderground v.1.15,2013-01-11 23:28:00,
2013-01-11 18:30:00,48.0,46.1,29.84,East,90,0.0,-999.0,93,0.00,,,0.41,Wunderground v.1.15,2013-01-11 23:30:00,
2013-01-11 18:34:00,47.7,46.1,29.85,East,92,0.0,0.0,94,0.00,,,0.41,Wunderground v.1.15,2013-01-11 23:34:00,
2013-01-11 18:35:00,47.6,46.0,29.85,N/A,-737280,0.0,-999.0,94,0.00,,,0.41,Wunderground v.1.15,2013-01-11 23:35:00,
2013-01-11 18:40:00,47.6,46.0,29.85,East,92,0.0,0.0,94,0.00,,,0.41,Wunderground v.1.15,2013-01-11 23:40:00,
2013-01-11 18:45:00,47.0,45.4,29.84,East,90,0.0,-999.0,94,0.00,,,0.41,Wunderground v.1.15,2013-01-11 23:45:00,
2013-01-11 18:46:00,47.2,45.6,29.84,East,91,0.0,0.0,94,0.00,,,0.41,Wunderground v.1.15,2013-01-11 23:46:00,
2013-01-11 18:50:00,47.0,45.4,29.84,East,90,0.0,-999.0,94,0.00,,,0.41,Wunderground v.1.15,2013-01-11 23:50:00,
2013-01-11 18:52:00,46.9,45.5,29.85,ENE,65,0.0,0.0,95,0.00,,,0.41,Wunderground v.1.15,2013-01-11 23:52:00,
2013-01-11 18:55:00,46.7,45.3,29.84,ENE,68,0.0,-999.0,95,0.00,,,0.41,Wunderground v.1.15,2013-01-11 23:55:00,
2013-01-11 18:58:00,46.7,45.3,29.84,ENE,67,0.0,0.0,95,0.00,,,0.41,Wunderground v.1.15,2013-01-11 23:58:00,
2013-01-11 19:00:00,46.7,45.3,29.84,ENE,68,0.0,-999.0,95,0.00,,,0.41,Wunderground v.1.15,2013-01-12 00:00:00,
2013-01-11 19:04:00,46.5,45.1,29.84,ENE,74,0.0,1.0,95,0.00,,,0.41,Wunderground v.1.15,2013-01-12 00:04:00,
2013-01-11 19:05:00,46.2,44.8,29.84,ENE,68,0.0,-999.0,95,0.00,,,0.41,Wunderground v.1.15,2013-01-12 00:05:00,
2013-01-11 19:10:00,46.2,44.8,29.85,ENE,74,0.0,0.0,95,0.00,,,0.41,Wunderground v.1.15,2013-01-12 00:10:00,
2013-01-11 19:15:00,46.5,45.4,29.85,SSW,203,0.0,-999.0,96,0.00,,,0.41,Wunderground v.1.15,2013-01-12 00:15:00,
2013-01-11 19:16:00,46.7,45.6,29.85,SE,129,0.0,2.0,96,0.00,,,0.41,Wunderground v.1.15,2013-01-12 00:16:00,
2013-01-11 19:20:00,46.5,45.4,29.85,SSW,203,0.0,-999.0,96,0.00,,,0.41,Wunderground v.1.15,2013-01-12 00:20:00,
2013-01-11 19:22:00,46.3,44.9,29.85,East,101,0.0,0.0,95,0.00,,,0.41,Wunderground v.1.15,2013-01-12 00:22:00,
2013-01-11 19:25:00,45.8,44.7,29.84,ENE,68,0.0,-999.0,96,0.00,,,0.41,Wunderground v.1.15,2013-01-12 00:25:00,
2013-01-11 19:28:00,45.8,44.4,29.84,ENE,78,0.0,1.0,95,0.00,,,0.41,Wunderground v.1.15,2013-01-12 00:28:00,
2013-01-11 19:30:00,45.8,44.7,29.84,ENE,68,0.0,-999.0,96,0.00,,,0.41,Wunderground v.1.15,2013-01-12 00:30:00,
2013-01-11 19:34:00,46.1,45.0,29.84,East,79,0.0,1.0,96,0.00,,,0.41,Wunderground v.1.15,2013-01-12 00:34:00,
2013-01-11 19:35:00,46.3,45.2,29.85,ENE,68,0.0,-999.0,96,0.00,,,0.41,Wunderground v.1.15,2013-01-12 00:35:00,
2013-01-11 19:40:00,46.3,45.2,29.84,East,79,0.0,0.0,96,0.00,,,0.41,Wunderground v.1.15,2013-01-12 00:40:00,
2013-01-11 19:45:00,45.7,44.6,29.84,East,90,0.0,-999.0,96,0.00,,,0.41,Wunderground v.1.15,2013-01-12 00:45:00,
2013-01-11 19:46:00,45.9,44.8,29.84,East,79,0.0,0.0,96,0.00,,,0.41,Wunderground v.1.15,2013-01-12 00:46:00,
2013-01-11 19:50:00,45.7,44.6,29.84,East,90,0.0,-999.0,96,0.00,,,0.41,Wunderground v.1.15,2013-01-12 00:50:00,
2013-01-11 19:52:00,45.6,44.5,29.84,East,79,0.0,0.0,96,0.00,,,0.41,Wunderground v.1.15,2013-01-12 00:52:00,
2013-01-11 19:55:00,45.5,44.4,29.84,N/A,-737280,0.0,-999.0,96,0.00,,,0.41,Wunderground v.1.15,2013-01-12 00:55:00,
2013-01-11 19:58:00,45.5,44.4,29.84,East,79,0.0,0.0,96,0.00,,,0.41,Wunderground v.1.15,2013-01-12 00:58:00,
2013-01-11 20:00:00,45.5,44.4,29.84,N/A,-737280,0.0,-999.0,96,0.00,,,0.41,Wunderground v.1.15,2013-01-12 01:00:00,
2013-01-11 20:04:00,45.4,44.3,29.83,East,79,0.0,0.0,96,0.00,,,0.41,Wunderground v.1.15,2013-01-12 01:04:00,
2013-01-11 20:05:00,45.5,44.7,29.83,N/A,-737280,0.0,-999.0,97,0.00,,,0.41,Wunderground v.1.15,2013-01-12 01:05:00,
2013-01-11 20:10:00,45.5,44.7,29.83,East,79,0.0,0.0,97,0.00,,,0.41,Wunderground v.1.15,2013-01-12 01:10:00,
2013-01-11 20:15:00,45.7,44.9,29.83,East,90,0.0,-999.0,97,0.00,,,0.41,Wunderground v.1.15,2013-01-12 01:15:00,
2013-01-11 20:16:00,45.7,44.9,29.83,East,79,0.0,0.0,97,0.00,,,0.41,Wunderground v.1.15,2013-01-12 01:16:00,
2013-01-11 20:20:00,45.7,44.9,29.83,East,90,0.0,-999.0,97,0.00,,,0.41,Wunderground v.1.15,2013-01-12 01:20:00,
2013-01-11 20:22:00,45.8,45.0,29.84,East,79,0.0,0.0,97,0.00,,,0.41,Wunderground v.1.15,2013-01-12 01:22:00,
2013-01-11 20:25:00,45.7,44.9,29.84,N/A,-737280,0.0,-999.0,97,0.00,,,0.41,Wunderground v.1.15,2013-01-12 01:25:00,
2013-01-11 20:28:00,45.7,44.9,29.83,East,79,0.0,0.0,97,0.00,,,0.41,Wunderground v.1.15,2013-01-12 01:28:00,
2013-01-11 20:30:00,45.7,44.9,29.84,N/A,-737280,0.0,-999.0,97,0.00,,,0.41,Wunderground v.1.15,2013-01-12 01:30:00,
2013-01-11 20:34:00,45.7,44.9,29.83,SE,137,0.0,0.0,97,0.00,,,0.41,Wunderground v.1.15,2013-01-12 01:34:00,
2013-01-11 20:35:00,45.8,45.0,29.83,SE,135,0.0,-999.0,97,0.00,,,0.41,Wunderground v.1.15,2013-01-12 01:35:00,
2013-01-11 20:40:00,45.7,44.9,29.83,SE,141,0.0,0.0,97,0.00,,,0.41,Wunderground v.1.15,2013-01-12 01:40:00,
2013-01-11 20:45:00,46.3,45.5,29.83,SSW,203,0.0,-999.0,97,0.00,,,0.41,Wunderground v.1.15,2013-01-12 01:45:00,
2013-01-11 20:46:00,46.2,45.4,29.83,SSE,156,0.0,1.0,97,0.00,,,0.41,Wunderground v.1.15,2013-01-12 01:46:00,
2013-01-11 20:50:00,46.3,45.5,29.83,SSW,203,0.0,-999.0,97,0.00,,,0.41,Wunderground v.1.15,2013-01-12 01:50:00,
2013-01-11 20:52:00,46.6,46.1,29.83,SW,221,0.0,5.0,98,0.00,,,0.41,Wunderground v.1.15,2013-01-12 01:52:00,
2013-01-11 20:55:00,47.1,46.6,29.83,SE,135,1.0,-999.0,98,0.00,,,0.41,Wunderground v.1.15,2013-01-12 01:55:00,
2013-01-11 20:58:00,47.1,46.6,29.83,SE,141,1.0,5.0,98,0.00,,,0.41,Wunderground v.1.15,2013-01-12 01:58:00,
2013-01-11 21:00:00,47.1,46.6,29.83,SE,135,1.0,-999.0,98,0.00,,,0.41,Wunderground v.1.15,2013-01-12 02:00:00,
2013-01-11 21:04:00,47.7,47.2,29.83,SSW,206,2.0,7.0,98,0.00,,,0.41,Wunderground v.1.15,2013-01-12 02:04:00,
2013-01-11 21:05:00,48.5,48.0,29.83,SSW,203,4.0,-999.0,98,0.00,,,0.41,Wunderground v.1.15,2013-01-12 02:05:00,
2013-01-11 21:10:00,48.6,48.1,29.83,South,190,4.0,5.0,98,0.00,,,0.41,Wunderground v.1.15,2013-01-12 02:10:00,
2013-01-11 21:15:00,49.7,48.3,29.83,SSW,203,6.0,-999.0,95,0.00,,,0.41,Wunderground v.1.15,2013-01-12 02:15:00,
2013-01-11 21:16:00,49.3,48.2,29.83,South,179,5.0,7.0,96,0.00,,,0.41,Wunderground v.1.15,2013-01-12 02:16:00,
2013-01-11 21:20:00,49.7,48.3,29.83,SSW,203,6.0,-999.0,95,0.00,,,0.41,Wunderground v.1.15,2013-01-12 02:20:00,
2013-01-11 21:22:00,49.9,48.5,29.83,SSW,194,6.0,7.0,95,0.00,,,0.41,Wunderground v.1.15,2013-01-12 02:22:00,
2013-01-11 21:25:00,50.4,48.7,29.83,SSW,203,7.0,-999.0,94,0.00,,,0.41,Wunderground v.1.15,2013-01-12 02:25:00,
2013-01-11 21:28:00,50.3,48.4,29.83,SSW,203,7.0,8.0,93,0.00,,,0.41,Wunderground v.1.15,2013-01-12 02:28:00,
2013-01-11 21:30:00,50.4,48.7,29.83,SSW,203,7.0,-999.0,94,0.00,,,0.41,Wunderground v.1.15,2013-01-12 02:30:00,
2013-01-11 21:34:00,50.7,48.7,29.83,SSW,211,8.0,9.0,93,0.00,,,0.41,Wunderground v.1.15,2013-01-12 02:34:00,
2013-01-11 21:35:00,50.9,48.7,29.83,SSW,203,9.0,-999.0,92,0.00,,,0.41,Wunderground v.1.15,2013-01-12 02:35:00,
2013-01-11 21:40:00,50.9,48.7,29.82,SSW,198,9.0,9.0,92,0.00,,,0.41,Wunderground v.1.15,2013-01-12 02:40:00,
2013-01-11 21:45:00,51.1,48.6,29.82,SSW,203,7.0,-999.0,91,0.00,,,0.41,Wunderground v.1.15,2013-01-12 02:45:00,
2013-01-11 21:46:00,51.1,48.9,29.82,SSW,211,8.0,9.0,92,0.00,,,0.41,Wunderground v.1.15,2013-01-12 02:46:00,
2013-01-11 21:50:00,51.1,48.6,29.82,SSW,203,7.0,-999.0,91,0.00,,,0.41,Wunderground v.1.15,2013-01-12 02:50:00,
2013-01-11 21:52:00,51.2,48.7,29.82,SSW,195,8.0,9.0,91,0.00,,,0.41,Wunderground v.1.15,2013-01-12 02:52:00,
2013-01-11 21:55:00,51.3,48.8,29.82,SSW,203,9.0,-999.0,91,0.00,,,0.41,Wunderground v.1.15,2013-01-12 02:55:00,
2013-01-11 21:58:00,51.3,48.8,29.82,SSW,197,8.0,10.0,91,0.00,,,0.41,Wunderground v.1.15,2013-01-12 02:58:00,
2013-01-11 22:00:00,51.3,48.8,29.82,SSW,203,9.0,-999.0,91,0.00,,,0.41,Wunderground v.1.15,2013-01-12 03:00:00,
2013-01-11 22:04:00,51.4,48.9,29.82,SSW,210,9.0,12.0,91,0.00,,,0.41,Wunderground v.1.15,2013-01-12 03:04:00,
2013-01-11 22:05:00,51.6,49.1,29.82,SSW,203,9.0,-999.0,91,0.00,,,0.41,Wunderground v.1.15,2013-01-12 03:05:00,
2013-01-11 22:10:00,51.7,49.2,29.82,SSW,205,10.0,10.0,91,0.00,,,0.41,Wunderground v.1.15,2013-01-12 03:10:00,
2013-01-11 22:15:00,51.7,48.9,29.82,SSW,203,10.0,-999.0,90,0.00,,,0.41,Wunderground v.1.15,2013-01-12 03:15:00,
2013-01-11 22:16:00,51.7,48.9,29.82,South,191,10.0,14.0,90,0.00,,,0.41,Wunderground v.1.15,2013-01-12 03:16:00,
2013-01-11 22:20:00,51.7,48.9,29.82,SSW,203,10.0,-999.0,90,0.00,,,0.41,Wunderground v.1.15,2013-01-12 03:20:00,
2013-01-11 22:22:00,51.7,49.2,29.83,SSW,203,10.0,10.0,91,0.00,,,0.41,Wunderground v.1.15,2013-01-12 03:22:00,
2013-01-11 22:25:00,51.4,48.9,29.83,SSW,203,10.0,-999.0,91,0.00,,,0.41,Wunderground v.1.15,2013-01-12 03:25:00,
2013-01-11 22:28:00,51.4,48.9,29.83,SSW,195,10.0,10.0,91,0.00,,,0.41,Wunderground v.1.15,2013-01-12 03:28:00,
2013-01-11 22:30:00,51.4,48.9,29.83,SSW,203,10.0,-999.0,91,0.00,,,0.41,Wunderground v.1.15,2013-01-12 03:30:00,
2013-01-11 22:34:00,51.5,49.0,29.83,SSW,204,10.0,10.0,91,0.00,,,0.41,Wunderground v.1.15,2013-01-12 03:34:00,
2013-01-11 22:35:00,51.5,49.0,29.83,SSW,203,10.0,-999.0,91,0.00,,,0.41,Wunderground v.1.15,2013-01-12 03:35:00,
2013-01-11 22:40:00,51.5,49.0,29.83,SSW,203,10.0,10.0,91,0.00,,,0.41,Wunderground v.1.15,2013-01-12 03:40:00,
2013-01-11 22:45:00,51.7,49.2,29.83,SSW,203,9.0,-999.0,91,0.00,,,0.41,Wunderground v.1.15,2013-01-12 03:45:00,
2013-01-11 22:46:00,51.6,49.1,29.83,SSW,211,9.0,11.0,91,0.00,,,0.41,Wunderground v.1.15,2013-01-12 03:46:00,
2013-01-11 22:50:00,51.7,49.2,29.83,SSW,203,9.0,-999.0,91,0.00,,,0.41,Wunderground v.1.15,2013-01-12 03:50:00,
2013-01-11 22:52:00,51.9,49.4,29.83,SSW,193,10.0,11.0,91,0.00,,,0.41,Wunderground v.1.15,2013-01-12 03:52:00,
2013-01-11 22:55:00,51.9,49.1,29.83,SSW,203,10.0,-999.0,90,0.00,,,0.41,Wunderground v.1.15,2013-01-12 03:55:00,
2013-01-11 22:58:00,51.9,49.1,29.83,SSW,208,10.0,12.0,90,0.00,,,0.41,Wunderground v.1.15,2013-01-12 03:58:00,
2013-01-11 23:00:00,51.9,49.1,29.83,SSW,203,10.0,-999.0,90,0.00,,,0.41,Wunderground v.1.15,2013-01-12 04:00:00,
2013-01-11 23:04:00,52.0,49.2,29.83,SSW,207,11.0,16.0,90,0.00,,,0.41,Wunderground v.1.15,2013-01-12 04:04:00,
2013-01-11 23:05:00,52.3,49.5,29.82,SSW,203,12.0,-999.0,90,0.00,,,0.41,Wunderground v.1.15,2013-01-12 04:05:00,
2013-01-11 23:10:00,52.3,49.5,29.82,SSW,207,12.0,12.0,90,0.00,,,0.41,Wunderground v.1.15,2013-01-12 04:10:00,
2013-01-11 23:15:00,52.3,49.2,29.82,SSW,203,12.0,-999.0,89,0.00,,,0.41,Wunderground v.1.15,2013-01-12 04:15:00,
2013-01-11 23:16:00,52.4,49.3,29.82,SSW,211,12.0,14.0,89,0.00,,,0.41,Wunderground v.1.15,2013-01-12 04:16:00,
2013-01-11 23:20:00,52.3,49.2,29.82,SSW,203,12.0,-999.0,89,0.00,,,0.41,Wunderground v.1.15,2013-01-12 04:20:00,
2013-01-11 23:22:00,52.2,49.4,29.83,SSW,205,12.0,13.0,90,0.00,,,0.41,Wunderground v.1.15,2013-01-12 04:22:00,
2013-01-11 23:25:00,52.1,49.3,29.83,SSW,203,13.0,-999.0,90,0.00,,,0.41,Wunderground v.1.15,2013-01-12 04:25:00,
2013-01-11 23:28:00,52.2,49.1,29.83,SW,214,13.0,15.0,89,0.00,,,0.41,Wunderground v.1.15,2013-01-12 04:28:00,
2013-01-11 23:30:00,52.1,49.3,29.83,SSW,203,13.0,-999.0,90,0.00,,,0.41,Wunderground v.1.15,2013-01-12 04:30:00,
2013-01-11 23:34:00,52.2,49.1,29.83,SSW,210,13.0,16.0,89,0.00,,,0.41,Wunderground v.1.15,2013-01-12 04:34:00,
2013-01-11 23:35:00,52.2,49.1,29.83,SSW,203,13.0,-999.0,89,0.00,,,0.41,Wunderground v.1.15,2013-01-12 04:35:00,
2013-01-11 23:40:00,52.1,49.0,29.83,SSW,197,13.0,13.0,89,0.00,,,0.41,Wunderground v.1.15,2013-01-12 04:40:00,
2013-01-11 23:45:00,51.9,48.8,29.82,SSW,203,12.0,-999.0,89,0.00,,,0.41,Wunderground v.1.15,2013-01-12 04:45:00,
2013-01-11 23:46:00,52.0,48.9,29.83,SSW,207,13.0,16.0,89,0.00,,,0.41,Wunderground v.1.15,2013-01-12 04:46:00,
2013-01-11 23:50:00,51.9,48.8,29.82,SSW,203,12.0,-999.0,89,0.00,,,0.41,Wunderground v.1.15,2013-01-12 04:50:00,
2013-01-11 23:52:00,51.8,49.0,29.82,SSW,207,12.0,14.0,90,0.00,,,0.41,Wunderground v.1.15,2013-01-12 04:52:00,
2013-01-11 23:55:00,51.9,49.1,29.81,SSW,203,12.0,-999.0,90,0.00,,,0.41,Wunderground v.1.15,2013-01-12 04:55:00,
2013-01-11 23:58:00,51.8,49.0,29.81,SW,214,12.0,14.0,90,0.00,,,0.41,Wunderground v.1.15,2013-01-12 04:58:00,